Time;durP1;ratioP1;P1;durP2;ratioP2;P2;SDS_P1;SDS_P2;PMS_P1;PMS_P2;Temp;Humidity;BMP_temperature;BMP_pressure;BME280_temperature;BME280_humidity;BME280_pressure;Samples;Min_cycle;Max_cycle;Signal;HPM_P1;HPM_P2
2020/12/15 00:00:11;;;;;;;21.50;14.63;;;;;;;2.15;92.08;100254.70;1678453;84;21609;-69
2020/12/15 00:02:39;;;;;;;43.78;25.88;;;;;;;2.15;92.01;100250.73;1700588;83;21284;-69
2020/12/15 00:05:07;;;;;;;36.33;21.05;;;;;;;2.10;91.79;100253.59;1677766;84;21069;-68
2020/12/15 00:07:37;;;;;;;32.63;22.87;;;;;;;2.07;91.95;100257.42;1726935;83;21125;-80
2020/12/15 00:10:04;;;;;;;30.37;19.77;;;;;;;2.08;92.02;100254.27;1736303;82;21066;-66
2020/12/15 00:12:32;;;;;;;25.70;15.75;;;;;;;2.06;91.92;100257.63;1736406;82;21633;-67
2020/12/15 00:14:59;;;;;;;29.23;19.60;;;;;;;2.01;91.93;100259.99;1736306;82;21213;-69
2020/12/15 00:17:27;;;;;;;28.17;18.60;;;;;;;1.96;91.98;100263.19;1716638;82;21583;-71
2020/12/15 00:19:55;;;;;;;36.70;23.00;;;;;;;1.91;92.10;100270.03;1706802;84;21165;-73
2020/12/15 00:22:23;;;;;;;31.12;19.75;;;;;;;1.89;92.32;100268.88;1708311;82;21192;-75
2020/12/15 00:24:51;;;;;;;25.23;17.40;;;;;;;1.89;92.39;100266.22;1709315;82;21140;-72
2020/12/15 00:27:18;;;;;;;29.92;19.32;;;;;;;1.91;92.45;100267.37;1707013;83;21714;-72
2020/12/15 00:29:46;;;;;;;27.30;17.82;;;;;;;1.88;92.53;100266.39;1708061;84;21187;-72
2020/12/15 00:32:13;;;;;;;25.35;18.45;;;;;;;1.87;92.71;100270.87;1731276;82;21136;-73
2020/12/15 00:34:42;;;;;;;29.32;16.85;;;;;;;1.85;92.74;100273.39;1728627;82;21133;-66
2020/12/15 00:37:09;;;;;;;30.52;21.05;;;;;;;1.83;92.89;100277.54;1729883;82;21137;-72
2020/12/15 00:39:37;;;;;;;28.87;19.40;;;;;;;1.80;92.90;100279.23;1718895;82;22105;-69
2020/12/15 00:42:05;;;;;;;30.55;21.60;;;;;;;1.78;93.04;100275.92;1734388;82;21066;-68
2020/12/15 00:44:34;;;;;;;29.92;20.17;;;;;;;1.78;93.19;100282.55;1724449;82;20995;-69
2020/12/15 00:47:03;;;;;;;32.58;23.47;;;;;;;1.83;93.46;100277.54;1711582;82;21586;-68
2020/12/15 00:49:31;;;;;;;29.00;21.97;;;;;;;1.90;93.60;100271.86;1706889;84;21172;-68
2020/12/15 00:52:00;;;;;;;35.03;22.70;;;;;;;1.96;93.55;100279.10;1708686;82;21365;-69
2020/12/15 00:54:27;;;;;;;29.87;20.23;;;;;;;2.00;93.42;100278.23;1735500;82;21157;-68
2020/12/15 00:56:56;;;;;;;28.62;19.55;;;;;;;2.04;93.44;100271.56;1713195;82;21160;-68
2020/12/15 00:59:24;;;;;;;34.03;22.95;;;;;;;2.07;93.37;100275.16;1717908;82;21603;-67
2020/12/15 01:01:53;;;;;;;32.58;21.95;;;;;;;2.07;93.18;100276.00;1696224;83;21160;-68
2020/12/15 01:04:21;;;;;;;27.75;20.40;;;;;;;2.10;93.13;100270.84;1684803;85;21396;-68
2020/12/15 01:06:49;;;;;;;35.65;23.65;;;;;;;2.12;93.02;100270.97;1684579;85;21177;-69
2020/12/15 01:09:19;;;;;;;37.13;23.32;;;;;;;2.13;92.94;100277.10;1686911;83;21192;-75
2020/12/15 01:11:47;;;;;;;37.83;24.10;;;;;;;2.16;92.91;100275.41;1713752;83;21195;-69
2020/12/15 01:14:16;;;;;;;36.40;22.22;;;;;;;2.23;92.97;100268.88;1704961;83;21162;-69
2020/12/15 01:16:45;;;;;;;28.83;19.98;;;;;;;2.22;92.65;100282.65;1699985;83;21901;-69
2020/12/15 01:19:16;;;;;;;26.30;17.32;;;;;;;2.17;92.43;100270.42;1662096;85;21148;-69
2020/12/15 01:21:46;;;;;;;34.75;21.80;;;;;;;2.10;92.30;100278.30;1690670;84;21188;-69
2020/12/15 01:24:16;;;;;;;34.45;22.55;;;;;;;2.04;92.30;100279.02;1679822;83;21174;-69
2020/12/15 01:27:09;;;;;;;36.90;24.37;;;;;;;2.06;92.53;100276.20;1881122;75;22765;-70
2020/12/15 01:29:39;;;;;;;42.50;26.95;;;;;;;2.03;92.61;100285.82;1843387;77;20956;-70
2020/12/15 01:32:08;;;;;;;39.27;27.05;;;;;;;2.03;92.63;100284.00;1860296;77;21250;-70
2020/12/15 01:34:36;;;;;;;42.20;28.02;;;;;;;2.04;92.67;100277.69;1825946;77;21539;-71
2020/12/15 01:37:06;;;;;;;36.33;21.15;;;;;;;2.06;92.64;100280.17;1847593;77;21235;-69
2020/12/15 01:39:34;;;;;;;44.90;27.50;;;;;;;2.04;92.50;100278.19;1798442;77;21062;-69
2020/12/15 01:42:09;;;;;;;38.75;23.47;;;;;;;2.01;92.53;100275.91;1842964;77;21113;-67
2020/12/15 01:44:38;;;;;;;29.80;20.90;;;;;;;2.01;92.57;100269.28;1851135;77;21451;-66
2020/12/15 01:47:07;;;;;;;35.70;21.17;;;;;;;2.00;92.54;100282.21;1781108;80;21161;-66
2020/12/15 01:49:36;;;;;;;31.57;20.23;;;;;;;1.97;92.53;100275.92;1789429;80;20975;-67
2020/12/15 01:52:04;;;;;;;31.15;19.92;;;;;;;1.93;92.63;100278.61;1783298;80;21168;-66
2020/12/15 01:54:53;;;;;;;31.20;21.40;;;;;;;1.94;92.73;100274.47;1845545;76;22672;-70
2020/12/15 01:57:23;;;;;;;27.05;18.50;;;;;;;1.88;92.75;100279.16;1796933;79;21001;-67
2020/12/15 01:59:58;;;;;;;32.42;22.62;;;;;;;1.85;92.75;100276.88;1790154;79;21167;-68
2020/12/15 02:02:27;;;;;;;35.50;24.20;;;;;;;1.79;92.77;100277.58;1816930;78;21016;-68
2020/12/15 02:04:57;;;;;;;28.45;20.12;;;;;;;1.78;93.00;100271.95;1803558;78;21619;-71
2020/12/15 02:07:25;;;;;;;31.17;20.90;;;;;;;1.80;93.16;100275.76;1754658;80;21145;-68
2020/12/15 02:09:55;;;;;;;28.83;19.37;;;;;;;1.79;93.25;100269.62;1784958;79;21058;-66
2020/12/15 02:12:36;;;;;;;32.58;24.25;;;;;;;1.84;93.35;100273.06;1788986;79;21575;-68
2020/12/15 02:15:06;;;;;;;28.60;17.82;;;;;;;1.86;93.31;100272.39;1799576;78;21023;-68
2020/12/15 02:17:36;;;;;;;35.40;22.65;;;;;;;1.84;93.20;100267.76;1782484;80;21043;-68
2020/12/15 02:20:19;;;;;;;34.60;19.03;;;;;;;1.85;93.26;100262.78;1817165;76;22751;-67
2020/12/15 02:22:48;;;;;;;37.75;24.02;;;;;;;1.79;93.29;100274.92;1784011;80;20982;-67
2020/12/15 02:25:17;;;;;;;38.20;19.67;;;;;;;1.79;93.38;100269.62;1785051;80;21636;-66
2020/12/15 02:27:45;;;;;;;33.02;18.90;;;;;;;1.79;93.49;100268.80;1784905;79;21555;-67
2020/12/15 02:30:14;;;;;;;34.25;20.17;;;;;;;1.79;93.53;100266.14;1785008;80;21157;-66
2020/12/15 02:32:42;;;;;;;28.15;18.57;;;;;;;1.78;93.61;100268.47;1785056;80;21169;-67
2020/12/15 02:35:13;;;;;;;34.35;22.55;;;;;;;1.77;93.62;100267.67;1787587;79;21169;-67
2020/12/15 02:37:42;;;;;;;35.03;24.02;;;;;;;1.75;93.69;100261.70;1752065;79;22050;-68
2020/12/15 02:40:11;;;;;;;34.08;22.20;;;;;;;1.79;93.78;100260.34;1792850;79;21000;-68
2020/12/15 02:42:42;;;;;;;30.68;19.80;;;;;;;1.83;93.83;100266.11;1811545;79;21063;-72
2020/12/15 02:45:11;;;;;;;35.05;22.40;;;;;;;1.88;93.94;100263.73;1806002;79;21747;-67
2020/12/15 02:47:40;;;;;;;31.62;19.80;;;;;;;1.92;93.94;100265.06;1802290;79;21137;-66
2020/12/15 02:50:09;;;;;;;33.38;19.98;;;;;;;1.96;93.86;100261.86;1817238;79;21376;-67
2020/12/15 02:52:36;;;;;;;35.25;21.42;;;;;;;1.95;93.68;100262.03;1789395;79;21144;-67
2020/12/15 02:55:06;;;;;;;43.42;24.07;;;;;;;1.94;93.69;100270.48;1786014;79;21010;-67
2020/12/15 02:57:36;;;;;;;28.12;21.23;;;;;;;1.98;93.72;100266.97;1784423;80;21559;-67
2020/12/15 03:00:11;;;;;;;28.77;18.25;;;;;;;1.99;93.56;100271.27;1799794;79;21536;-68
2020/12/15 03:02:42;;;;;;;32.20;20.52;;;;;;;1.99;93.55;100269.45;1817185;78;20999;-66
2020/12/15 03:05:10;;;;;;;30.12;19.60;;;;;;;2.04;93.65;100267.08;1817074;79;21164;-65
2020/12/15 03:07:39;;;;;;;33.23;20.72;;;;;;;2.06;93.46;100266.38;1817197;79;20979;-67
2020/12/15 03:10:11;;;;;;;30.23;19.27;;;;;;;2.03;93.26;100270.73;1810743;79;21105;-67
2020/12/15 03:12:41;;;;;;;32.53;20.77;;;;;;;1.99;93.14;100268.13;1794993;79;21170;-67
2020/12/15 03:15:09;;;;;;;33.90;18.52;;;;;;;1.95;93.09;100269.49;1792540;79;21166;-67
2020/12/15 03:17:37;;;;;;;24.05;17.52;;;;;;;1.89;93.05;100273.35;1733131;81;21776;-67
2020/12/15 03:20:06;;;;;;;29.80;19.50;;;;;;;1.82;93.09;100269.28;1755844;80;21101;-67
2020/12/15 03:22:36;;;;;;;31.12;19.50;;;;;;;1.77;93.25;100274.30;1753431;81;21570;-66
2020/12/15 03:25:04;;;;;;;22.20;15.50;;;;;;;1.75;93.43;100273.14;1754063;81;21161;-67
2020/12/15 03:27:34;;;;;;;23.70;16.57;;;;;;;1.74;93.52;100278.61;1752831;81;21648;-66
2020/12/15 03:30:03;;;;;;;21.48;14.98;;;;;;;1.69;93.56;100279.16;1753768;81;21189;-69
2020/12/15 03:32:31;;;;;;;22.35;15.53;;;;;;;1.64;93.68;100278.86;1754326;80;21577;-67
2020/12/15 03:34:59;;;;;;;28.35;18.70;;;;;;;1.58;93.83;100278.77;1753388;81;21029;-69
2020/12/15 03:37:28;;;;;;;20.85;14.90;;;;;;;1.53;94.02;100288.58;1755399;80;21157;-66
2020/12/15 03:39:56;;;;;;;26.62;16.80;;;;;;;1.54;94.35;100290.69;1751378;80;21704;-66
2020/12/15 03:42:41;;;;;;;23.57;15.40;;;;;;;1.60;94.53;100300.10;1846425;76;22729;-67
2020/12/15 03:45:09;;;;;;;23.80;16.17;;;;;;;1.59;94.69;100296.30;1790965;79;20912;-66
2020/12/15 03:47:37;;;;;;;20.75;15.13;;;;;;;1.61;94.72;100308.88;1817202;78;21208;-66
2020/12/15 03:50:08;;;;;;;21.00;12.37;;;;;;;1.58;94.68;100308.72;1817170;79;21006;-67
2020/12/15 03:52:37;;;;;;;21.50;15.23;;;;;;;1.57;94.64;100308.91;1816243;78;21149;-66
2020/12/15 03:55:23;;;;;;;21.90;12.53;;;;;;;1.61;94.85;100304.91;1846404;76;22714;-73
2020/12/15 03:57:55;;;;;;;25.10;18.17;;;;;;;1.60;95.03;100303.25;1782868;80;21014;-66
2020/12/15 04:00:25;;;;;;;29.98;21.50;;;;;;;1.60;94.96;100306.73;1790008;79;21266;-66
2020/12/15 04:03:02;;;;;;;24.43;18.10;;;;;;;1.66;95.06;100301.22;1809925;77;22729;-67
2020/12/15 04:05:37;;;;;;;29.75;18.23;;;;;;;1.65;95.08;100304.87;1737910;80;21615;-67
2020/12/15 04:08:06;;;;;;;20.77;16.05;;;;;;;1.68;95.04;100302.69;1781342;80;21206;-67
2020/12/15 04:10:34;;;;;;;22.20;14.98;;;;;;;1.70;94.96;100308.64;1780923;80;21005;-68
2020/12/15 04:13:03;;;;;;;21.33;14.70;;;;;;;1.74;94.98;100311.27;1777759;80;20979;-68
2020/12/15 04:15:32;;;;;;;21.40;16.30;;;;;;;1.78;94.83;100309.56;1736053;81;21019;-67
2020/12/15 04:18:02;;;;;;;19.60;13.55;;;;;;;1.79;94.78;100320.01;1745808;82;21010;-67
2020/12/15 04:20:30;;;;;;;24.00;16.57;;;;;;;1.79;94.70;100317.85;1726854;82;23598;-66
2020/12/15 04:22:58;;;;;;;23.67;16.60;;;;;;;1.79;94.69;100320.01;1749553;82;21145;-67
2020/12/15 04:25:28;;;;;;;26.05;17.60;;;;;;;1.81;94.68;100319.84;1750495;82;20975;-67
2020/12/15 04:27:56;;;;;;;28.25;18.15;;;;;;;1.86;94.71;100319.63;1750396;81;21571;-67
2020/12/15 04:30:24;;;;;;;26.20;17.50;;;;;;;1.91;94.65;100325.23;1750510;82;21118;-67
2020/12/15 04:32:54;;;;;;;25.20;16.75;;;;;;;1.96;94.69;100327.34;1727985;82;21108;-70
2020/12/15 04:35:24;;;;;;;23.50;14.68;;;;;;;2.00;94.53;100328.63;1720400;82;21173;-68
2020/12/15 04:37:53;;;;;;;22.52;16.07;;;;;;;2.00;94.37;100332.12;1724961;82;21133;-69
2020/12/15 04:40:21;;;;;;;21.55;14.90;;;;;;;1.99;94.20;100329.13;1720730;82;21559;-67
2020/12/15 04:42:51;;;;;;;26.55;16.75;;;;;;;1.99;94.21;100341.07;1720624;83;21603;-66
2020/12/15 04:45:20;;;;;;;27.07;17.65;;;;;;;1.99;94.12;100342.39;1722430;82;22062;-64
2020/12/15 04:47:49;;;;;;;24.20;17.70;;;;;;;2.00;94.00;100340.57;1749986;82;21295;-66
2020/12/15 04:50:19;;;;;;;25.05;16.95;;;;;;;2.04;94.10;100338.70;1750299;82;21743;-65
2020/12/15 04:53:08;;;;;;;22.57;14.93;;;;;;;2.15;94.14;100338.79;1823863;76;22751;-68
2020/12/15 04:55:39;;;;;;;22.75;15.88;;;;;;;2.16;94.04;100341.73;1783894;79;21042;-65
2020/12/15 04:58:08;;;;;;;22.25;15.90;;;;;;;2.19;93.89;100334.77;1785904;79;21183;-66
2020/12/15 05:00:36;;;;;;;21.42;14.83;;;;;;;2.18;93.55;100343.23;1809747;79;20991;-66
2020/12/15 05:03:22;;;;;;;25.52;18.02;;;;;;;2.15;93.36;100342.77;1801737;79;20983;-66
2020/12/15 05:05:50;;;;;;;25.97;18.62;;;;;;;2.07;93.17;100334.36;1784786;79;21007;-69
2020/12/15 05:08:20;;;;;;;24.02;16.48;;;;;;;2.05;93.24;100340.86;1816181;79;21023;-67
2020/12/15 05:10:52;;;;;;;27.95;19.07;;;;;;;2.05;93.25;100340.86;1816448;79;21808;-66
2020/12/15 05:13:32;;;;;;;22.10;15.47;;;;;;;2.12;93.42;100342.61;1830687;75;22768;-69
2020/12/15 05:15:59;;;;;;;21.33;15.03;;;;;;;2.13;93.51;100344.77;1780335;80;20920;-69
2020/12/15 05:19:05;;;;;;;24.20;17.53;;;;;;;2.19;93.28;100351.52;1847194;76;22715;-68
2020/12/15 05:21:38;;;;;;;26.95;20.62;;;;;;;2.10;93.07;100356.58;1815839;79;20998;-69
2020/12/15 05:24:09;;;;;;;29.25;20.95;;;;;;;2.09;93.06;100367.36;1817251;79;21262;-67
2020/12/15 05:26:41;;;;;;;26.93;21.48;;;;;;;2.05;92.92;100366.06;1815318;79;25000;-67
2020/12/15 05:29:17;;;;;;;25.37;17.37;;;;;;;2.00;92.95;100367.92;1766621;79;21074;-68
2020/12/15 05:31:42;;;;;;;22.77;15.95;;;;;;;2.01;93.06;100376.72;1782559;80;21181;-68
2020/12/15 05:34:29;;;;;;;20.92;16.77;;;;;;;2.00;93.06;100376.39;1760152;80;21634;-69
2020/12/15 05:37:22;;;;;;;20.47;13.13;;;;;;;2.03;93.14;100370.71;1889329;76;22458;-66
2020/12/15 05:39:55;;;;;;;20.70;12.85;;;;;;;1.98;93.13;100373.90;1860199;77;20971;-68
2020/12/15 05:42:24;;;;;;;;;;;;;;;1.92;93.02;100379.91;1825626;78;21556;-66
2020/12/15 05:44:52;;;;;;;25.45;19.20;;;;;;;1.86;93.10;100383.28;1784445;80;20147;-67
2020/12/15 05:47:23;;;;;;;26.07;17.75;;;;;;;1.89;93.41;100394.03;1781446;80;20987;-68
2020/12/15 05:49:53;;;;;;;28.00;19.55;;;;;;;1.92;93.53;100391.84;1780979;80;21025;-69
2020/12/15 05:52:26;;;;;;;27.17;18.32;;;;;;;1.95;93.63;100391.51;1781411;80;21114;-69
2020/12/15 05:55:07;;;;;;;27.58;18.70;;;;;;;2.03;93.70;100397.23;1784409;80;21664;-70
2020/12/15 05:57:35;;;;;;;21.57;14.15;;;;;;;2.06;93.61;100400.36;1822449;78;21643;-68
2020/12/15 06:00:10;;;;;;;29.50;18.67;;;;;;;2.05;93.40;100406.69;1822389;78;20996;-67
2020/12/15 06:02:42;;;;;;;30.25;19.48;;;;;;;2.00;93.31;100411.70;1815494;78;21154;-66
2020/12/15 06:05:10;;;;;;;23.38;17.15;;;;;;;1.97;93.32;100409.87;1789976;80;21176;-67
2020/12/15 06:07:39;;;;;;;23.32;17.35;;;;;;;1.97;93.50;100415.18;1789978;80;21193;-66
2020/12/15 06:10:07;;;;;;;27.20;19.87;;;;;;;2.03;93.72;100417.14;1789889;80;20990;-67
2020/12/15 06:12:34;;;;;;;26.62;17.87;;;;;;;2.07;93.65;100421.91;1776551;79;21614;-67
2020/12/15 06:15:03;;;;;;;24.65;17.65;;;;;;;2.11;93.68;100433.81;1753994;80;21609;-65
2020/12/15 06:17:30;;;;;;;29.23;18.50;;;;;;;2.10;93.58;100437.50;1776291;80;21130;-67
2020/12/15 06:20:00;;;;;;;16.97;12.10;;;;;;;2.13;93.58;100437.13;1784929;80;22214;-66
2020/12/15 06:22:27;;;;;;;23.05;16.60;;;;;;;2.12;93.23;100441.28;1784186;80;21108;-66
2020/12/15 06:24:57;;;;;;;20.45;15.28;;;;;;;2.05;93.15;100438.53;1784979;80;21161;-66
2020/12/15 06:27:34;;;;;;;24.98;17.05;;;;;;;2.02;93.17;100444.16;1785150;80;21050;-67
2020/12/15 06:30:05;;;;;;;22.85;18.98;;;;;;;2.01;93.21;100447.84;1785103;80;21172;-67
2020/12/15 06:32:33;;;;;;;22.65;15.90;;;;;;;2.03;93.43;100447.64;1785032;80;21243;-66
2020/12/15 06:35:10;;;;;;;27.90;19.30;;;;;;;2.14;93.56;100455.20;1784940;80;21627;-65
2020/12/15 06:37:35;;;;;;;23.10;16.27;;;;;;;2.17;93.40;100450.37;1762232;80;21179;-65
2020/12/15 06:40:04;;;;;;;24.07;16.32;;;;;;;2.21;93.27;100451.36;1781926;80;21176;-67
2020/12/15 06:42:34;;;;;;;25.30;18.20;;;;;;;2.18;93.07;100454.67;1785049;80;21117;-66
2020/12/15 06:45:07;;;;;;;25.40;17.00;;;;;;;2.19;93.11;100456.83;1733037;80;21386;-66
2020/12/15 06:47:35;;;;;;;21.57;15.85;;;;;;;2.19;93.10;100458.98;1784698;80;21189;-67
2020/12/15 06:50:15;;;;;;;22.10;15.58;;;;;;;2.22;93.07;100464.42;1760825;80;21030;-66
2020/12/15 06:52:43;;;;;;;22.98;15.60;;;;;;;2.22;92.92;100463.59;1753368;81;21131;-65
2020/12/15 06:55:10;;;;;;;17.55;13.70;;;;;;;2.22;92.82;100470.23;1753506;80;22232;-66
2020/12/15 06:57:39;;;;;;;23.10;14.80;;;;;;;2.21;92.77;100473.39;1753330;81;21534;-66
2020/12/15 07:00:11;;;;;;;23.65;17.07;;;;;;;2.17;92.65;100469.44;1753463;81;21125;-68
2020/12/15 07:02:43;;;;;;;17.30;12.13;;;;;;;2.16;92.82;100477.90;1754296;80;20975;-68
2020/12/15 07:05:26;;;;;;;26.65;18.12;;;;;;;2.17;92.79;100478.72;1727283;81;21134;-65
2020/12/15 07:07:57;;;;;;;21.17;14.38;;;;;;;2.12;92.59;100479.25;1753473;81;21109;-66
2020/12/15 07:10:28;;;;;;;18.57;13.72;;;;;;;2.07;92.66;100482.94;1753832;80;22258;-67
2020/12/15 07:12:59;;;;;;;21.27;14.87;;;;;;;2.05;92.76;100482.80;1761155;80;21026;-66
2020/12/15 07:15:27;;;;;;;20.00;14.70;;;;;;;2.01;92.83;100484.98;1781962;80;21149;-66
2020/12/15 07:17:55;;;;;;;24.00;15.38;;;;;;;2.00;93.00;100485.15;1753504;80;21148;-67
2020/12/15 07:20:23;;;;;;;22.87;16.25;;;;;;;1.98;92.99;100475.20;1753327;81;21145;-65
2020/12/15 07:22:51;;;;;;;26.80;18.62;;;;;;;1.97;93.13;100477.52;1754148;80;22381;-68
2020/12/15 07:25:20;;;;;;;19.35;14.90;;;;;;;1.97;93.29;100482.33;1766722;80;21152;-67
2020/12/15 07:27:48;;;;;;;25.77;16.20;;;;;;;1.99;93.34;100482.16;1779107;80;21535;-68
2020/12/15 07:30:21;;;;;;;19.77;14.40;;;;;;;1.98;93.28;100475.20;1784371;80;21003;-68
2020/12/15 07:32:49;;;;;;;26.12;17.52;;;;;;;1.98;93.43;100491.12;1784556;80;21110;-66
2020/12/15 07:35:23;;;;;;;23.92;15.98;;;;;;;2.00;93.51;100483.33;1784331;80;21043;-66
2020/12/15 07:37:56;;;;;;;26.10;18.45;;;;;;;2.05;93.60;100486.78;1777109;80;21181;-68
2020/12/15 07:40:28;;;;;;;26.68;18.30;;;;;;;2.08;93.65;100490.39;1785012;80;21158;-68
2020/12/15 07:43:00;;;;;;;22.58;14.55;;;;;;;2.11;93.57;100496.17;1776226;80;21590;-67
2020/12/15 07:45:29;;;;;;;30.32;20.27;;;;;;;2.08;93.40;100490.39;1767846;80;21555;-67
2020/12/15 07:47:57;;;;;;;27.25;18.05;;;;;;;2.05;93.32;100488.11;1784461;80;22116;-65
2020/12/15 07:50:29;;;;;;;32.10;20.00;;;;;;;2.02;93.32;100492.41;1784870;80;21031;-66
2020/12/15 07:53:10;;;;;;;19.02;13.32;;;;;;;2.01;93.48;100494.77;1755261;80;20979;-68
2020/12/15 07:55:39;;;;;;;20.02;14.30;;;;;;;2.02;93.64;100493.25;1771228;80;20955;-69
2020/12/15 07:58:15;;;;;;;20.25;14.15;;;;;;;2.01;93.56;100496.09;1785095;80;21595;-66
2020/12/15 08:00:42;;;;;;;24.27;18.37;;;;;;;1.98;93.49;100500.40;1784931;80;21367;-67
2020/12/15 08:03:10;;;;;;;33.45;18.25;;;;;;;1.93;93.57;100502.75;1783887;80;21203;-67
2020/12/15 08:05:38;;;;;;;26.35;18.42;;;;;;;1.90;93.71;100499.95;1784919;80;21626;-69
2020/12/15 08:08:05;;;;;;;24.30;16.85;;;;;;;1.91;93.92;100500.30;1769953;80;21026;-72
2020/12/15 08:10:34;;;;;;;24.52;17.57;;;;;;;1.97;94.19;100494.77;1753967;80;21133;-66
2020/12/15 08:13:05;;;;;;;26.20;18.10;;;;;;;2.04;94.26;100499.71;1753745;80;21365;-77
2020/12/15 08:15:39;;;;;;;25.70;17.75;;;;;;;2.12;94.39;100495.17;1753749;81;21598;-67
2020/12/15 08:18:08;;;;;;;18.32;12.47;;;;;;;2.17;94.24;100499.95;1754079;80;21122;-66
2020/12/15 08:20:36;;;;;;;22.22;15.70;;;;;;;2.21;94.03;100494.61;1753865;81;21207;-67
2020/12/15 08:23:10;;;;;;;22.42;16.15;;;;;;;2.17;93.73;100498.63;1736731;81;21148;-66
2020/12/15 08:25:43;;;;;;;24.18;17.57;;;;;;;2.13;93.71;100500.81;1782725;80;21338;-66
2020/12/15 08:28:24;;;;;;;22.27;16.80;;;;;;;2.16;93.88;100500.95;1784802;80;21130;-65
2020/12/15 08:30:54;;;;;;;24.52;16.75;;;;;;;2.22;93.96;100508.72;1751152;81;21023;-66
2020/12/15 08:33:26;;;;;;;31.45;19.45;;;;;;;2.30;94.09;100506.03;1750601;81;21549;-66
2020/12/15 08:35:58;;;;;;;32.30;19.37;;;;;;;2.33;93.77;100509.14;1769194;81;21108;-67
2020/12/15 08:38:28;;;;;;;25.55;17.65;;;;;;;2.37;93.75;100508.28;1768442;81;21377;-66
2020/12/15 08:40:57;;;;;;;23.12;18.27;;;;;;;2.40;93.61;100510.61;1755529;81;21185;-67
2020/12/15 08:43:26;;;;;;;28.40;19.55;;;;;;;2.40;93.44;100514.06;1759875;81;21525;-65
2020/12/15 08:45:54;;;;;;;26.60;18.27;;;;;;;2.39;93.22;100509.78;1770298;81;21163;-66
2020/12/15 08:48:23;;;;;;;27.95;19.82;;;;;;;2.38;93.18;100505.96;1770411;81;21553;-66
2020/12/15 08:50:51;;;;;;;31.60;20.17;;;;;;;2.39;93.18;100507.13;1770230;81;21337;-67
2020/12/15 08:53:20;;;;;;;35.17;24.25;;;;;;;2.45;93.26;100505.56;1767716;81;21168;-66
2020/12/15 08:55:49;;;;;;;27.82;16.93;;;;;;;2.45;93.06;100506.39;1761354;81;21189;-66
2020/12/15 08:58:18;;;;;;;40.52;21.42;;;;;;;2.51;93.05;100507.02;1770163;81;21711;-67
2020/12/15 09:00:46;;;;;;;35.20;21.27;;;;;;;2.54;92.86;100512.49;1770350;81;21155;-67
2020/12/15 09:03:17;;;;;;;37.53;22.37;;;;;;;2.56;92.84;100505.98;1768698;80;21206;-67
2020/12/15 09:05:57;;;;;;;29.42;21.40;;;;;;;2.59;92.75;100503.49;1740309;81;21654;-66
2020/12/15 09:08:26;;;;;;;30.30;19.65;;;;;;;2.58;92.49;100509.30;1739775;82;22157;-67
2020/12/15 09:10:57;;;;;;;28.00;20.40;;;;;;;2.57;92.32;100505.48;1739632;82;21183;-67
2020/12/15 09:13:25;;;;;;;25.62;18.27;;;;;;;2.54;92.26;100509.83;1739547;82;21223;-67
2020/12/15 09:15:55;;;;;;;31.57;19.27;;;;;;;2.57;92.37;100512.13;1746169;81;21212;-65
2020/12/15 09:18:32;;;;;;;29.77;20.68;;;;;;;2.60;92.30;100509.93;1755096;81;21066;-68
2020/12/15 09:21:11;;;;;;;31.42;19.35;;;;;;;2.64;92.36;100508.56;1755518;81;20955;-67
2020/12/15 09:23:49;;;;;;;30.35;18.73;;;;;;;2.69;92.29;100509.86;1756680;81;21149;-67
2020/12/15 09:26:17;;;;;;;22.77;14.98;;;;;;;2.70;92.11;100511.02;1769925;81;21637;-66
2020/12/15 09:28:46;;;;;;;29.05;20.20;;;;;;;2.67;91.83;100514.04;1769940;81;21350;-67
2020/12/15 09:31:16;;;;;;;31.90;21.42;;;;;;;2.60;91.71;100512.58;1769895;81;21176;-68
2020/12/15 09:33:44;;;;;;;25.35;19.15;;;;;;;2.62;91.86;100515.91;1745852;81;21188;-66
2020/12/15 09:36:13;;;;;;;31.60;20.75;;;;;;;2.66;91.89;100514.20;1737882;82;21126;-66
2020/12/15 09:38:41;;;;;;;32.23;19.92;;;;;;;2.68;91.76;100511.71;1752157;81;21148;-67
2020/12/15 09:41:09;;;;;;;19.90;14.43;;;;;;;2.69;91.68;100504.54;1758244;81;21388;-69
2020/12/15 09:43:36;;;;;;;27.70;17.23;;;;;;;2.72;91.64;100509.52;1757395;81;21108;-66
2020/12/15 09:46:04;;;;;;;29.30;21.33;;;;;;;2.68;91.33;100509.55;1749452;81;21540;-66
2020/12/15 09:48:32;;;;;;;29.67;19.50;;;;;;;2.62;91.33;100503.12;1748721;81;21155;-66
2020/12/15 09:51:01;;;;;;;27.37;17.15;;;;;;;2.62;91.47;100504.45;1728406;81;21158;-68
2020/12/15 09:53:29;;;;;;;26.00;18.12;;;;;;;2.67;91.59;100507.40;1698552;84;21211;-64
2020/12/15 09:55:57;;;;;;;24.85;18.35;;;;;;;2.69;91.52;100501.89;1727413;83;21189;-68
2020/12/15 09:58:28;;;;;;;25.82;19.57;;;;;;;2.74;91.56;100507.48;1724609;82;21033;-67
2020/12/15 10:00:57;;;;;;;25.88;17.45;;;;;;;2.72;91.37;100501.05;1725315;83;21167;-69
2020/12/15 10:03:24;;;;;;;20.55;15.32;;;;;;;2.69;91.41;100501.39;1782031;80;21117;-67
2020/12/15 10:05:52;;;;;;;31.02;19.95;;;;;;;2.67;91.35;100500.76;1782360;80;21370;-68
2020/12/15 10:08:22;;;;;;;26.45;18.35;;;;;;;2.63;91.26;100492.83;1782556;80;21121;-67
2020/12/15 10:10:50;;;;;;;24.47;17.80;;;;;;;2.60;91.40;100491.34;1782092;80;21166;-67
2020/12/15 10:13:18;;;;;;;24.23;16.52;;;;;;;2.62;91.54;100501.30;1781960;80;21197;-67
2020/12/15 10:15:45;;;;;;;30.55;20.05;;;;;;;2.64;91.62;100497.11;1782035;80;21603;-67
2020/12/15 10:18:13;;;;;;;19.12;13.40;;;;;;;2.65;91.65;100494.79;1779600;80;21352;-70
2020/12/15 10:20:40;;;;;;;24.98;17.70;;;;;;;2.68;91.67;100497.60;1764356;80;20995;-65
2020/12/15 10:23:11;;;;;;;19.32;14.13;;;;;;;2.66;91.61;100495.61;1765667;80;21201;-67
2020/12/15 10:25:41;;;;;;;25.70;17.77;;;;;;;2.63;91.63;100502.95;1749486;82;21162;-68
2020/12/15 10:28:10;;;;;;;27.75;18.17;;;;;;;2.59;91.57;100501.63;1757895;80;21165;-65
2020/12/15 10:30:39;;;;;;;29.00;19.10;;;;;;;2.58;91.75;100504.48;1730776;82;21893;-68
2020/12/15 10:33:07;;;;;;;25.48;18.15;;;;;;;2.58;91.76;100507.14;1753781;81;22007;-67
2020/12/15 10:35:35;;;;;;;30.97;20.50;;;;;;;2.56;91.76;100498.52;1753859;81;21275;-67
2020/12/15 10:38:02;;;;;;;23.70;15.18;;;;;;;2.58;91.98;100502.66;1753638;81;21038;-67
2020/12/15 10:40:30;;;;;;;27.62;19.10;;;;;;;2.64;92.15;100499.77;1753867;81;21594;-66
2020/12/15 10:42:58;;;;;;;28.25;20.10;;;;;;;2.70;92.18;100502.22;1762090;80;21158;-66
2020/12/15 10:45:28;;;;;;;26.17;19.77;;;;;;;2.72;92.04;100498.89;1746125;79;21020;-68
2020/12/15 10:47:56;;;;;;;34.30;25.10;;;;;;;2.71;91.96;100504.70;1755650;81;21579;-67
2020/12/15 10:50:24;;;;;;;37.23;23.90;;;;;;;2.69;91.90;100512.52;1756217;81;21084;-70
2020/12/15 10:52:54;;;;;;;29.23;18.07;;;;;;;2.69;91.94;100511.18;1765965;80;21174;-69
2020/12/15 10:55:23;;;;;;;25.85;17.87;;;;;;;2.68;91.85;100509.55;1758320;79;21205;-69
2020/12/15 10:57:50;;;;;;;33.70;24.65;;;;;;;2.66;91.83;100504.41;1737806;82;21117;-68
2020/12/15 11:00:18;;;;;;;25.02;18.60;;;;;;;2.66;91.87;100516.86;1737997;81;21154;-69
2020/12/15 11:02:47;;;;;;;25.90;17.17;;;;;;;2.67;91.93;100518.52;1738050;81;21146;-71
2020/12/15 11:05:14;;;;;;;27.95;18.00;;;;;;;2.70;92.06;100517.66;1754034;81;21155;-66
2020/12/15 11:07:42;;;;;;;29.25;20.35;;;;;;;2.73;92.08;100513.83;1755427;81;21195;-70
2020/12/15 11:10:10;;;;;;;28.83;18.75;;;;;;;2.76;92.13;100518.77;1750168;81;21108;-69
2020/12/15 11:12:38;;;;;;;17.12;11.95;;;;;;;2.79;92.05;100513.09;1746169;81;21005;-70
2020/12/15 11:15:06;;;;;;;17.52;13.88;;;;;;;2.77;91.78;100525.25;1750208;81;21573;-74
2020/12/15 11:17:33;;;;;;;24.75;15.88;;;;;;;2.68;91.65;100529.48;1725293;83;21127;-69
2020/12/15 11:20:03;;;;;;;25.00;17.82;;;;;;;2.68;91.98;100530.80;1725991;81;21380;-68
2020/12/15 11:22:30;;;;;;;17.87;11.53;;;;;;;2.76;92.26;100534.71;1725274;83;21180;-69
2020/12/15 11:24:58;;;;;;;26.15;16.40;;;;;;;2.84;92.12;100531.97;1725484;83;21099;-72
2020/12/15 11:27:27;;;;;;;23.27;17.45;;;;;;;2.82;91.77;100533.51;1728270;81;21615;-73
2020/12/15 11:29:56;;;;;;;24.10;16.67;;;;;;;2.80;91.77;100538.16;1741378;81;21135;-69